sensor_id;sensor_type;location;lat;lon;timestamp;P1;durP1;ratioP1;P2;durP2;ratioP2
13012;SDS011;22580;57.670;12.006;2022-09-24T00:01:32;0.40;;;0.40;;
13012;SDS011;22580;57.670;12.006;2022-09-24T00:04:01;0.40;;;0.40;;
13012;SDS011;22580;57.670;12.006;2022-09-24T00:06:32;0.60;;;0.60;;
13012;SDS011;22580;57.670;12.006;2022-09-24T00:09:01;0.50;;;0.50;;
13012;SDS011;22580;57.670;12.006;2022-09-24T00:11:28;0.43;;;0.43;;
13012;SDS011;22580;57.670;12.006;2022-09-24T00:13:58;0.40;;;0.40;;
13012;SDS011;22580;57.670;12.006;2022-09-24T00:16:26;0.70;;;0.50;;
13012;SDS011;22580;57.670;12.006;2022-09-24T00:18:57;0.90;;;0.90;;
13012;SDS011;22580;57.670;12.006;2022-09-24T00:21:25;1.40;;;0.80;;
13012;SDS011;22580;57.670;12.006;2022-09-24T00:23:55;0.70;;;0.70;;
13012;SDS011;22580;57.670;12.006;2022-09-24T00:26:25;0.80;;;0.60;;
13012;SDS011;22580;57.670;12.006;2022-09-24T00:29:11;0.80;;;0.60;;
13012;SDS011;22580;57.670;12.006;2022-09-24T00:31:40;0.60;;;0.60;;
13012;SDS011;22580;57.670;12.006;2022-09-24T00:34:07;0.53;;;0.53;;
13012;SDS011;22580;57.670;12.006;2022-09-24T00:36:34;0.80;;;0.80;;
13012;SDS011;22580;57.670;12.006;2022-09-24T00:39:02;0.80;;;0.80;;
13012;SDS011;22580;57.670;12.006;2022-09-24T00:41:30;0.83;;;0.80;;
13012;SDS011;22580;57.670;12.006;2022-09-24T00:44:00;0.80;;;0.80;;
13012;SDS011;22580;57.670;12.006;2022-09-24T00:46:49;0.63;;;0.63;;
13012;SDS011;22580;57.670;12.006;2022-09-24T00:49:17;0.77;;;0.77;;
13012;SDS011;22580;57.670;12.006;2022-09-24T00:51:45;0.40;;;0.40;;
13012;SDS011;22580;57.670;12.006;2022-09-24T00:54:18;0.73;;;0.60;;
13012;SDS011;22580;57.670;12.006;2022-09-24T00:56:48;1.23;;;1.00;;
13012;SDS011;22580;57.670;12.006;2022-09-24T00:59:17;0.83;;;0.83;;
13012;SDS011;22580;57.670;12.006;2022-09-24T01:01:49;0.70;;;0.70;;
13012;SDS011;22580;57.670;12.006;2022-09-24T01:04:18;0.83;;;0.83;;
13012;SDS011;22580;57.670;12.006;2022-09-24T01:06:45;1.30;;;0.80;;
13012;SDS011;22580;57.670;12.006;2022-09-24T01:09:13;1.00;;;0.70;;
13012;SDS011;22580;57.670;12.006;2022-09-24T01:11:42;0.80;;;0.70;;
13012;SDS011;22580;57.670;12.006;2022-09-24T01:14:29;0.90;;;0.90;;
13012;SDS011;22580;57.670;12.006;2022-09-24T01:17:12;0.67;;;0.67;;
13012;SDS011;22580;57.670;12.006;2022-09-24T01:19:57;0.80;;;0.80;;
13012;SDS011;22580;57.670;12.006;2022-09-24T01:22:41;0.50;;;0.50;;
13012;SDS011;22580;57.670;12.006;2022-09-24T01:25:22;0.40;;;0.40;;
13012;SDS011;22580;57.670;12.006;2022-09-24T01:28:00;1.20;;;1.10;;
13012;SDS011;22580;57.670;12.006;2022-09-24T01:30:45;0.90;;;0.90;;
13012;SDS011;22580;57.670;12.006;2022-09-24T01:33:17;0.90;;;0.90;;
13012;SDS011;22580;57.670;12.006;2022-09-24T01:35:50;0.77;;;0.77;;
13012;SDS011;22580;57.670;12.006;2022-09-24T01:38:20;1.07;;;0.70;;
13012;SDS011;22580;57.670;12.006;2022-09-24T01:40:50;0.70;;;0.70;;
13012;SDS011;22580;57.670;12.006;2022-09-24T01:43:23;0.80;;;0.80;;
13012;SDS011;22580;57.670;12.006;2022-09-24T01:45:53;0.70;;;0.70;;
13012;SDS011;22580;57.670;12.006;2022-09-24T01:48:23;0.70;;;0.70;;
13012;SDS011;22580;57.670;12.006;2022-09-24T01:50:51;0.60;;;0.60;;
13012;SDS011;22580;57.670;12.006;2022-09-24T01:53:25;0.60;;;0.60;;
13012;SDS011;22580;57.670;12.006;2022-09-24T01:55:58;0.50;;;0.50;;
13012;SDS011;22580;57.670;12.006;2022-09-24T01:58:31;0.60;;;0.60;;
13012;SDS011;22580;57.670;12.006;2022-09-24T02:01:05;0.60;;;0.60;;
13012;SDS011;22580;57.670;12.006;2022-09-24T02:03:37;0.60;;;0.60;;
13012;SDS011;22580;57.670;12.006;2022-09-24T02:06:09;0.50;;;0.50;;
13012;SDS011;22580;57.670;12.006;2022-09-24T02:08:42;0.80;;;0.70;;
13012;SDS011;22580;57.670;12.006;2022-09-24T02:11:11;0.80;;;0.80;;
13012;SDS011;22580;57.670;12.006;2022-09-24T02:13:41;0.60;;;0.60;;
13012;SDS011;22580;57.670;12.006;2022-09-24T02:16:14;0.67;;;0.60;;
13012;SDS011;22580;57.670;12.006;2022-09-24T02:18:45;0.80;;;0.80;;
13012;SDS011;22580;57.670;12.006;2022-09-24T02:21:16;0.50;;;0.50;;
13012;SDS011;22580;57.670;12.006;2022-09-24T02:23:46;0.50;;;0.50;;
13012;SDS011;22580;57.670;12.006;2022-09-24T02:26:19;0.60;;;0.60;;
13012;SDS011;22580;57.670;12.006;2022-09-24T02:28:46;0.73;;;0.73;;
13012;SDS011;22580;57.670;12.006;2022-09-24T02:31:15;0.60;;;0.60;;
13012;SDS011;22580;57.670;12.006;2022-09-24T02:33:48;0.60;;;0.60;;
13012;SDS011;22580;57.670;12.006;2022-09-24T02:36:45;0.70;;;0.70;;
13012;SDS011;22580;57.670;12.006;2022-09-24T02:39:13;0.70;;;0.70;;
13012;SDS011;22580;57.670;12.006;2022-09-24T02:41:41;0.50;;;0.50;;
13012;SDS011;22580;57.670;12.006;2022-09-24T02:44:10;0.50;;;0.50;;
13012;SDS011;22580;57.670;12.006;2022-09-24T02:46:39;0.40;;;0.40;;
13012;SDS011;22580;57.670;12.006;2022-09-24T02:49:06;0.70;;;0.70;;
13012;SDS011;22580;57.670;12.006;2022-09-24T02:51:34;0.50;;;0.50;;
13012;SDS011;22580;57.670;12.006;2022-09-24T02:54:01;0.60;;;0.60;;
13012;SDS011;22580;57.670;12.006;2022-09-24T02:56:28;0.43;;;0.43;;
13012;SDS011;22580;57.670;12.006;2022-09-24T02:58:55;0.40;;;0.40;;
13012;SDS011;22580;57.670;12.006;2022-09-24T03:01:22;0.30;;;0.30;;
13012;SDS011;22580;57.670;12.006;2022-09-24T03:03:50;0.40;;;0.40;;
13012;SDS011;22580;57.670;12.006;2022-09-24T03:06:17;0.33;;;0.33;;
13012;SDS011;22580;57.670;12.006;2022-09-24T03:08:44;0.53;;;0.53;;
13012;SDS011;22580;57.670;12.006;2022-09-24T03:11:11;0.33;;;0.33;;
13012;SDS011;22580;57.670;12.006;2022-09-24T03:13:39;0.30;;;0.30;;
13012;SDS011;22580;57.670;12.006;2022-09-24T03:16:06;0.40;;;0.40;;
13012;SDS011;22580;57.670;12.006;2022-09-24T03:18:33;0.30;;;0.30;;
13012;SDS011;22580;57.670;12.006;2022-09-24T03:21:03;0.40;;;0.40;;
13012;SDS011;22580;57.670;12.006;2022-09-24T03:23:32;0.33;;;0.33;;
13012;SDS011;22580;57.670;12.006;2022-09-24T03:26:00;0.40;;;0.40;;
13012;SDS011;22580;57.670;12.006;2022-09-24T03:28:27;0.30;;;0.30;;
13012;SDS011;22580;57.670;12.006;2022-09-24T03:30:54;0.20;;;0.20;;
13012;SDS011;22580;57.670;12.006;2022-09-24T03:33:27;0.30;;;0.30;;
13012;SDS011;22580;57.670;12.006;2022-09-24T03:35:56;0.20;;;0.20;;
13012;SDS011;22580;57.670;12.006;2022-09-24T03:38:25;0.30;;;0.30;;
13012;SDS011;22580;57.670;12.006;2022-09-24T03:40:52;0.30;;;0.30;;
13012;SDS011;22580;57.670;12.006;2022-09-24T03:43:19;0.20;;;0.20;;
13012;SDS011;22580;57.670;12.006;2022-09-24T03:45:46;0.20;;;0.20;;
13012;SDS011;22580;57.670;12.006;2022-09-24T03:48:13;0.20;;;0.20;;
13012;SDS011;22580;57.670;12.006;2022-09-24T03:50:40;0.20;;;0.20;;
13012;SDS011;22580;57.670;12.006;2022-09-24T03:53:07;0.20;;;0.20;;
13012;SDS011;22580;57.670;12.006;2022-09-24T03:55:40;0.30;;;0.30;;
13012;SDS011;22580;57.670;12.006;2022-09-24T03:58:07;0.30;;;0.30;;
13012;SDS011;22580;57.670;12.006;2022-09-24T04:00:34;0.20;;;0.20;;
13012;SDS011;22580;57.670;12.006;2022-09-24T04:03:01;0.40;;;0.30;;
13012;SDS011;22580;57.670;12.006;2022-09-24T04:05:28;0.40;;;0.40;;
13012;SDS011;22580;57.670;12.006;2022-09-24T04:07:55;0.33;;;0.33;;
13012;SDS011;22580;57.670;12.006;2022-09-24T04:10:22;0.50;;;0.50;;
13012;SDS011;22580;57.670;12.006;2022-09-24T04:12:51;0.40;;;0.40;;
13012;SDS011;22580;57.670;12.006;2022-09-24T04:15:18;0.47;;;0.47;;
13012;SDS011;22580;57.670;12.006;2022-09-24T04:17:48;0.40;;;0.40;;
13012;SDS011;22580;57.670;12.006;2022-09-24T04:20:16;0.30;;;0.30;;
13012;SDS011;22580;57.670;12.006;2022-09-24T04:22:43;0.30;;;0.30;;
13012;SDS011;22580;57.670;12.006;2022-09-24T04:25:10;0.40;;;0.40;;
13012;SDS011;22580;57.670;12.006;2022-09-24T04:27:37;0.50;;;0.50;;
13012;SDS011;22580;57.670;12.006;2022-09-24T04:30:07;0.40;;;0.40;;
13012;SDS011;22580;57.670;12.006;2022-09-24T04:32:35;0.30;;;0.30;;
13012;SDS011;22580;57.670;12.006;2022-09-24T04:35:02;0.50;;;0.50;;
13012;SDS011;22580;57.670;12.006;2022-09-24T04:37:29;0.33;;;0.33;;
13012;SDS011;22580;57.670;12.006;2022-09-24T04:39:56;0.30;;;0.30;;
13012;SDS011;22580;57.670;12.006;2022-09-24T04:42:23;0.33;;;0.33;;
13012;SDS011;22580;57.670;12.006;2022-09-24T04:44:50;0.30;;;0.30;;
13012;SDS011;22580;57.670;12.006;2022-09-24T04:47:19;0.40;;;0.40;;
13012;SDS011;22580;57.670;12.006;2022-09-24T04:49:50;0.40;;;0.40;;
13012;SDS011;22580;57.670;12.006;2022-09-24T04:52:17;0.40;;;0.40;;
13012;SDS011;22580;57.670;12.006;2022-09-24T04:54:44;0.30;;;0.30;;
13012;SDS011;22580;57.670;12.006;2022-09-24T04:57:11;0.40;;;0.40;;
13012;SDS011;22580;57.670;12.006;2022-09-24T04:59:38;0.27;;;0.27;;
13012;SDS011;22580;57.670;12.006;2022-09-24T05:02:05;0.57;;;0.50;;
13012;SDS011;22580;57.670;12.006;2022-09-24T05:04:34;0.40;;;0.40;;
13012;SDS011;22580;57.670;12.006;2022-09-24T05:07:01;0.20;;;0.20;;
13012;SDS011;22580;57.670;12.006;2022-09-24T05:09:29;0.20;;;0.20;;
13012;SDS011;22580;57.670;12.006;2022-09-24T05:11:56;0.40;;;0.40;;
13012;SDS011;22580;57.670;12.006;2022-09-24T05:14:23;0.23;;;0.23;;
13012;SDS011;22580;57.670;12.006;2022-09-24T05:16:50;0.20;;;0.20;;
13012;SDS011;22580;57.670;12.006;2022-09-24T05:19:18;0.20;;;0.20;;
13012;SDS011;22580;57.670;12.006;2022-09-24T05:21:49;0.20;;;0.20;;
13012;SDS011;22580;57.670;12.006;2022-09-24T05:24:16;0.20;;;0.20;;
13012;SDS011;22580;57.670;12.006;2022-09-24T05:26:42;0.30;;;0.30;;
13012;SDS011;22580;57.670;12.006;2022-09-24T05:29:26;0.40;;;0.40;;
13012;SDS011;22580;57.670;12.006;2022-09-24T05:31:53;0.30;;;0.30;;
13012;SDS011;22580;57.670;12.006;2022-09-24T05:34:20;0.30;;;0.30;;
13012;SDS011;22580;57.670;12.006;2022-09-24T05:36:49;0.30;;;0.30;;
13012;SDS011;22580;57.670;12.006;2022-09-24T05:39:16;0.37;;;0.37;;
13012;SDS011;22580;57.670;12.006;2022-09-24T05:41:43;0.20;;;0.20;;
13012;SDS011;22580;57.670;12.006;2022-09-24T05:44:10;0.20;;;0.20;;
13012;SDS011;22580;57.670;12.006;2022-09-24T05:46:36;0.13;;;0.13;;
13012;SDS011;22580;57.670;12.006;2022-09-24T05:49:04;0.20;;;0.20;;
13012;SDS011;22580;57.670;12.006;2022-09-24T05:51:30;0.20;;;0.20;;
13012;SDS011;22580;57.670;12.006;2022-09-24T05:53:59;0.20;;;0.20;;
13012;SDS011;22580;57.670;12.006;2022-09-24T05:56:26;0.20;;;0.20;;
13012;SDS011;22580;57.670;12.006;2022-09-24T05:58:52;0.20;;;0.20;;
13012;SDS011;22580;57.670;12.006;2022-09-24T06:01:19;0.20;;;0.20;;
13012;SDS011;22580;57.670;12.006;2022-09-24T06:03:46;0.23;;;0.23;;
13012;SDS011;22580;57.670;12.006;2022-09-24T06:06:13;0.20;;;0.20;;
13012;SDS011;22580;57.670;12.006;2022-09-24T06:08:40;0.10;;;0.10;;
13012;SDS011;22580;57.670;12.006;2022-09-24T06:11:08;0.17;;;0.17;;
13012;SDS011;22580;57.670;12.006;2022-09-24T06:13:37;0.20;;;0.20;;
13012;SDS011;22580;57.670;12.006;2022-09-24T06:16:04;0.20;;;0.20;;
13012;SDS011;22580;57.670;12.006;2022-09-24T06:18:33;0.27;;;0.27;;
13012;SDS011;22580;57.670;12.006;2022-09-24T06:21:00;0.30;;;0.30;;
13012;SDS011;22580;57.670;12.006;2022-09-24T06:23:28;0.30;;;0.30;;
13012;SDS011;22580;57.670;12.006;2022-09-24T06:25:55;0.20;;;0.20;;
13012;SDS011;22580;57.670;12.006;2022-09-24T06:28:23;0.20;;;0.20;;
13012;SDS011;22580;57.670;12.006;2022-09-24T06:30:50;0.20;;;0.20;;
13012;SDS011;22580;57.670;12.006;2022-09-24T06:33:18;0.53;;;0.13;;
13012;SDS011;22580;57.670;12.006;2022-09-24T06:35:45;0.20;;;0.20;;
13012;SDS011;22580;57.670;12.006;2022-09-24T06:38:13;0.10;;;0.10;;
13012;SDS011;22580;57.670;12.006;2022-09-24T06:40:42;0.20;;;0.20;;
13012;SDS011;22580;57.670;12.006;2022-09-24T06:43:11;0.13;;;0.13;;
13012;SDS011;22580;57.670;12.006;2022-09-24T06:45:40;0.20;;;0.20;;
13012;SDS011;22580;57.670;12.006;2022-09-24T06:48:08;0.20;;;0.20;;
13012;SDS011;22580;57.670;12.006;2022-09-24T06:50:38;0.17;;;0.17;;
13012;SDS011;22580;57.670;12.006;2022-09-24T06:53:06;0.20;;;0.20;;
13012;SDS011;22580;57.670;12.006;2022-09-24T06:55:34;0.20;;;0.20;;
13012;SDS011;22580;57.670;12.006;2022-09-24T06:58:02;0.30;;;0.30;;
13012;SDS011;22580;57.670;12.006;2022-09-24T07:00:50;0.30;;;0.30;;
13012;SDS011;22580;57.670;12.006;2022-09-24T07:03:35;0.40;;;0.40;;
13012;SDS011;22580;57.670;12.006;2022-09-24T07:06:43;0.30;;;0.30;;
13012;SDS011;22580;57.670;12.006;2022-09-24T07:09:27;0.40;;;0.40;;
13012;SDS011;22580;57.670;12.006;2022-09-24T07:11:54;0.40;;;0.40;;
13012;SDS011;22580;57.670;12.006;2022-09-24T07:14:25;0.50;;;0.50;;
13012;SDS011;22580;57.670;12.006;2022-09-24T07:16:53;0.60;;;0.60;;
13012;SDS011;22580;57.670;12.006;2022-09-24T07:22:17;0.55;;;0.55;;
13012;SDS011;22580;57.670;12.006;2022-09-24T07:25:01;0.60;;;0.60;;
13012;SDS011;22580;57.670;12.006;2022-09-24T07:27:28;0.50;;;0.50;;
13012;SDS011;22580;57.670;12.006;2022-09-24T07:29:55;0.40;;;0.40;;
13012;SDS011;22580;57.670;12.006;2022-09-24T07:32:23;0.40;;;0.40;;
13012;SDS011;22580;57.670;12.006;2022-09-24T07:34:50;0.70;;;0.70;;
13012;SDS011;22580;57.670;12.006;2022-09-24T07:37:18;0.63;;;0.63;;
13012;SDS011;22580;57.670;12.006;2022-09-24T07:39:45;0.73;;;0.53;;
13012;SDS011;22580;57.670;12.006;2022-09-24T07:42:12;0.43;;;0.43;;
13012;SDS011;22580;57.670;12.006;2022-09-24T07:44:39;0.70;;;0.70;;
13012;SDS011;22580;57.670;12.006;2022-09-24T07:47:06;0.70;;;0.70;;
13012;SDS011;22580;57.670;12.006;2022-09-24T07:49:37;0.77;;;0.70;;
13012;SDS011;22580;57.670;12.006;2022-09-24T07:52:04;0.60;;;0.60;;
13012;SDS011;22580;57.670;12.006;2022-09-24T07:54:31;0.50;;;0.50;;
13012;SDS011;22580;57.670;12.006;2022-09-24T07:56:57;0.60;;;0.60;;
13012;SDS011;22580;57.670;12.006;2022-09-24T07:59:26;0.70;;;0.70;;
13012;SDS011;22580;57.670;12.006;2022-09-24T08:01:54;0.57;;;0.50;;
13012;SDS011;22580;57.670;12.006;2022-09-24T08:04:23;0.50;;;0.50;;
13012;SDS011;22580;57.670;12.006;2022-09-24T08:06:52;0.40;;;0.40;;
13012;SDS011;22580;57.670;12.006;2022-09-24T08:09:19;0.60;;;0.60;;
13012;SDS011;22580;57.670;12.006;2022-09-24T08:11:47;0.50;;;0.50;;
13012;SDS011;22580;57.670;12.006;2022-09-24T08:14:15;0.63;;;0.63;;
13012;SDS011;22580;57.670;12.006;2022-09-24T08:16:42;0.50;;;0.50;;
13012;SDS011;22580;57.670;12.006;2022-09-24T08:19:09;0.50;;;0.50;;
13012;SDS011;22580;57.670;12.006;2022-09-24T08:21:38;0.70;;;0.70;;
13012;SDS011;22580;57.670;12.006;2022-09-24T08:24:06;0.77;;;0.77;;
13012;SDS011;22580;57.670;12.006;2022-09-24T08:26:33;0.57;;;0.57;;
13012;SDS011;22580;57.670;12.006;2022-09-24T08:29:00;0.57;;;0.57;;
13012;SDS011;22580;57.670;12.006;2022-09-24T08:31:26;0.50;;;0.50;;
13012;SDS011;22580;57.670;12.006;2022-09-24T08:33:54;0.50;;;0.50;;
13012;SDS011;22580;57.670;12.006;2022-09-24T08:36:21;0.40;;;0.40;;
13012;SDS011;22580;57.670;12.006;2022-09-24T08:38:48;0.30;;;0.30;;
13012;SDS011;22580;57.670;12.006;2022-09-24T08:41:24;0.63;;;0.43;;
13012;SDS011;22580;57.670;12.006;2022-09-24T08:44:03;0.40;;;0.40;;
13012;SDS011;22580;57.670;12.006;2022-09-24T08:46:35;0.40;;;0.40;;
13012;SDS011;22580;57.670;12.006;2022-09-24T08:49:26;0.50;;;0.50;;
13012;SDS011;22580;57.670;12.006;2022-09-24T08:51:58;0.40;;;0.40;;
13012;SDS011;22580;57.670;12.006;2022-09-24T08:54:29;0.40;;;0.40;;
13012;SDS011;22580;57.670;12.006;2022-09-24T08:57:00;0.38;;;0.38;;
13012;SDS011;22580;57.670;12.006;2022-09-24T08:59:32;0.60;;;0.50;;
13012;SDS011;22580;57.670;12.006;2022-09-24T09:02:08;0.40;;;0.40;;
13012;SDS011;22580;57.670;12.006;2022-09-24T09:04:49;0.30;;;0.30;;
13012;SDS011;22580;57.670;12.006;2022-09-24T09:07:24;0.40;;;0.40;;
13012;SDS011;22580;57.670;12.006;2022-09-24T09:09:55;0.68;;;0.63;;
13012;SDS011;22580;57.670;12.006;2022-09-24T09:12:34;0.60;;;0.60;;
13012;SDS011;22580;57.670;12.006;2022-09-24T09:15:05;0.57;;;0.57;;
13012;SDS011;22580;57.670;12.006;2022-09-24T09:17:39;0.50;;;0.50;;
13012;SDS011;22580;57.670;12.006;2022-09-24T09:20:13;0.57;;;0.57;;
13012;SDS011;22580;57.670;12.006;2022-09-24T09:22:45;0.50;;;0.50;;
13012;SDS011;22580;57.670;12.006;2022-09-24T09:25:18;0.50;;;0.50;;
13012;SDS011;22580;57.670;12.006;2022-09-24T09:27:50;0.50;;;0.50;;
13012;SDS011;22580;57.670;12.006;2022-09-24T09:30:22;0.40;;;0.40;;
13012;SDS011;22580;57.670;12.006;2022-09-24T09:32:54;0.50;;;0.50;;
13012;SDS011;22580;57.670;12.006;2022-09-24T09:35:32;0.50;;;0.50;;
13012;SDS011;22580;57.670;12.006;2022-09-24T09:38:09;0.50;;;0.50;;
13012;SDS011;22580;57.670;12.006;2022-09-24T09:40:47;0.30;;;0.30;;
13012;SDS011;22580;57.670;12.006;2022-09-24T09:43:22;0.40;;;0.40;;
13012;SDS011;22580;57.670;12.006;2022-09-24T09:45:54;0.30;;;0.30;;
13012;SDS011;22580;57.670;12.006;2022-09-24T09:48:35;0.40;;;0.40;;
13012;SDS011;22580;57.670;12.006;2022-09-24T09:51:12;0.50;;;0.50;;
13012;SDS011;22580;57.670;12.006;2022-09-24T09:53:52;0.40;;;0.40;;
13012;SDS011;22580;57.670;12.006;2022-09-24T09:56:21;0.30;;;0.30;;
13012;SDS011;22580;57.670;12.006;2022-09-24T09:58:59;0.40;;;0.40;;
13012;SDS011;22580;57.670;12.006;2022-09-24T10:01:31;0.60;;;0.60;;
13012;SDS011;22580;57.670;12.006;2022-09-24T10:04:31;0.90;;;0.88;;
13012;SDS011;22580;57.670;12.006;2022-09-24T10:07:07;0.90;;;0.90;;
13012;SDS011;22580;57.670;12.006;2022-09-24T10:09:36;0.47;;;0.47;;
13012;SDS011;22580;57.670;12.006;2022-09-24T10:12:13;0.70;;;0.70;;
13012;SDS011;22580;57.670;12.006;2022-09-24T10:14:43;0.73;;;0.73;;
13012;SDS011;22580;57.670;12.006;2022-09-24T10:17:22;0.60;;;0.60;;
13012;SDS011;22580;57.670;12.006;2022-09-24T10:19:54;0.40;;;0.40;;
13012;SDS011;22580;57.670;12.006;2022-09-24T10:22:23;0.70;;;0.70;;
13012;SDS011;22580;57.670;12.006;2022-09-24T10:24:54;0.50;;;0.50;;
13012;SDS011;22580;57.670;12.006;2022-09-24T10:27:26;1.20;;;1.08;;
13012;SDS011;22580;57.670;12.006;2022-09-24T10:29:59;0.95;;;0.85;;
13012;SDS011;22580;57.670;12.006;2022-09-24T10:32:46;1.15;;;1.10;;
13012;SDS011;22580;57.670;12.006;2022-09-24T10:35:23;0.60;;;0.60;;
13012;SDS011;22580;57.670;12.006;2022-09-24T10:37:52;0.85;;;0.85;;
13012;SDS011;22580;57.670;12.006;2022-09-24T10:40:21;0.80;;;0.80;;
13012;SDS011;22580;57.670;12.006;2022-09-24T10:42:58;1.20;;;1.10;;
13012;SDS011;22580;57.670;12.006;2022-09-24T10:48:19;1.10;;;1.00;;
13012;SDS011;22580;57.670;12.006;2022-09-24T10:50:52;1.10;;;1.10;;
13012;SDS011;22580;57.670;12.006;2022-09-24T10:53:27;0.95;;;0.95;;
13012;SDS011;22580;57.670;12.006;2022-09-24T10:56:07;1.00;;;1.00;;
13012;SDS011;22580;57.670;12.006;2022-09-24T10:59:03;2.00;;;1.23;;
13012;SDS011;22580;57.670;12.006;2022-09-24T11:01:56;1.17;;;1.17;;
13012;SDS011;22580;57.670;12.006;2022-09-24T11:04:42;0.80;;;0.80;;
13012;SDS011;22580;57.670;12.006;2022-09-24T11:07:19;0.88;;;0.88;;
13012;SDS011;22580;57.670;12.006;2022-09-24T11:10:09;0.82;;;0.82;;
13012;SDS011;22580;57.670;12.006;2022-09-24T11:12:48;1.15;;;1.10;;
13012;SDS011;22580;57.670;12.006;2022-09-24T11:15:27;1.02;;;1.00;;
13012;SDS011;22580;57.670;12.006;2022-09-24T11:18:14;1.50;;;1.40;;
13012;SDS011;22580;57.670;12.006;2022-09-24T11:21:02;1.27;;;1.20;;
13012;SDS011;22580;57.670;12.006;2022-09-24T11:26:40;1.80;;;1.70;;
13012;SDS011;22580;57.670;12.006;2022-09-24T11:29:22;1.45;;;1.38;;
13012;SDS011;22580;57.670;12.006;2022-09-24T11:32:01;1.30;;;1.20;;
13012;SDS011;22580;57.670;12.006;2022-09-24T11:34:43;1.05;;;0.95;;
13012;SDS011;22580;57.670;12.006;2022-09-24T11:37:27;1.50;;;1.40;;
13012;SDS011;22580;57.670;12.006;2022-09-24T11:40:10;1.33;;;1.23;;
13012;SDS011;22580;57.670;12.006;2022-09-24T11:42:52;1.30;;;1.20;;
13012;SDS011;22580;57.670;12.006;2022-09-24T11:45:33;1.00;;;1.00;;
13012;SDS011;22580;57.670;12.006;2022-09-24T11:48:15;1.48;;;1.38;;
13012;SDS011;22580;57.670;12.006;2022-09-24T11:50:57;1.50;;;1.40;;
13012;SDS011;22580;57.670;12.006;2022-09-24T11:53:33;1.73;;;1.33;;
13012;SDS011;22580;57.670;12.006;2022-09-24T11:56:06;1.33;;;1.23;;
13012;SDS011;22580;57.670;12.006;2022-09-24T11:58:39;1.38;;;1.27;;
13012;SDS011;22580;57.670;12.006;2022-09-24T12:01:09;1.00;;;1.00;;
13012;SDS011;22580;57.670;12.006;2022-09-24T12:03:43;0.65;;;0.65;;
13012;SDS011;22580;57.670;12.006;2022-09-24T12:06:17;1.25;;;1.15;;
13012;SDS011;22580;57.670;12.006;2022-09-24T12:08:49;1.08;;;1.08;;
13012;SDS011;22580;57.670;12.006;2022-09-24T12:11:22;0.93;;;0.93;;
13012;SDS011;22580;57.670;12.006;2022-09-24T12:13:55;1.05;;;1.05;;
13012;SDS011;22580;57.670;12.006;2022-09-24T12:16:32;0.90;;;0.90;;
13012;SDS011;22580;57.670;12.006;2022-09-24T12:19:06;1.23;;;1.13;;
13012;SDS011;22580;57.670;12.006;2022-09-24T12:21:39;1.10;;;1.00;;
13012;SDS011;22580;57.670;12.006;2022-09-24T12:24:10;0.90;;;0.90;;
13012;SDS011;22580;57.670;12.006;2022-09-24T12:26:43;0.68;;;0.68;;
13012;SDS011;22580;57.670;12.006;2022-09-24T12:29:27;0.70;;;0.70;;
13012;SDS011;22580;57.670;12.006;2022-09-24T12:32:22;1.60;;;1.48;;
13012;SDS011;22580;57.670;12.006;2022-09-24T12:35:19;1.30;;;1.20;;
13012;SDS011;22580;57.670;12.006;2022-09-24T12:37:59;1.35;;;1.30;;
13012;SDS011;22580;57.670;12.006;2022-09-24T12:40:36;1.38;;;1.27;;
13012;SDS011;22580;57.670;12.006;2022-09-24T12:43:27;1.45;;;1.42;;
13012;SDS011;22580;57.670;12.006;2022-09-24T12:45:58;1.60;;;1.50;;
13012;SDS011;22580;57.670;12.006;2022-09-24T12:48:28;1.00;;;1.00;;
13012;SDS011;22580;57.670;12.006;2022-09-24T12:50:59;1.45;;;1.40;;
13012;SDS011;22580;57.670;12.006;2022-09-24T12:53:31;1.23;;;1.17;;
13012;SDS011;22580;57.670;12.006;2022-09-24T12:56:01;0.90;;;0.90;;
13012;SDS011;22580;57.670;12.006;2022-09-24T12:58:35;1.20;;;1.15;;
13012;SDS011;22580;57.670;12.006;2022-09-24T13:01:06;0.80;;;0.80;;
13012;SDS011;22580;57.670;12.006;2022-09-24T13:03:37;1.40;;;1.30;;
13012;SDS011;22580;57.670;12.006;2022-09-24T13:06:29;1.10;;;1.10;;
13012;SDS011;22580;57.670;12.006;2022-09-24T13:09:00;1.70;;;1.60;;
13012;SDS011;22580;57.670;12.006;2022-09-24T13:11:29;1.50;;;1.40;;
13012;SDS011;22580;57.670;12.006;2022-09-24T13:14:00;1.30;;;1.30;;
13012;SDS011;22580;57.670;12.006;2022-09-24T13:16:35;1.08;;;1.08;;
13012;SDS011;22580;57.670;12.006;2022-09-24T13:19:04;1.60;;;1.50;;
13012;SDS011;22580;57.670;12.006;2022-09-24T13:21:51;1.40;;;1.30;;
13012;SDS011;22580;57.670;12.006;2022-09-24T13:24:24;1.50;;;1.40;;
13012;SDS011;22580;57.670;12.006;2022-09-24T13:26:53;1.60;;;1.50;;
13012;SDS011;22580;57.670;12.006;2022-09-24T13:29:24;1.10;;;1.10;;
13012;SDS011;22580;57.670;12.006;2022-09-24T13:31:54;1.10;;;1.00;;
13012;SDS011;22580;57.670;12.006;2022-09-24T13:34:25;1.20;;;1.20;;
13012;SDS011;22580;57.670;12.006;2022-09-24T13:36:54;1.42;;;1.33;;
13012;SDS011;22580;57.670;12.006;2022-09-24T13:39:28;1.17;;;1.13;;
13012;SDS011;22580;57.670;12.006;2022-09-24T13:42:13;1.20;;;1.17;;
13012;SDS011;22580;57.670;12.006;2022-09-24T13:44:44;1.00;;;1.00;;
13012;SDS011;22580;57.670;12.006;2022-09-24T13:47:14;0.80;;;0.80;;
13012;SDS011;22580;57.670;12.006;2022-09-24T13:49:54;1.00;;;1.00;;
13012;SDS011;22580;57.670;12.006;2022-09-24T13:52:33;1.30;;;1.30;;
13012;SDS011;22580;57.670;12.006;2022-09-24T13:55:07;0.70;;;0.70;;
13012;SDS011;22580;57.670;12.006;2022-09-24T13:57:42;0.80;;;0.80;;
13012;SDS011;22580;57.670;12.006;2022-09-24T14:00:15;0.90;;;0.90;;
13012;SDS011;22580;57.670;12.006;2022-09-24T14:02:50;0.90;;;0.90;;
13012;SDS011;22580;57.670;12.006;2022-09-24T14:05:19;0.70;;;0.70;;
13012;SDS011;22580;57.670;12.006;2022-09-24T14:07:54;0.90;;;0.90;;
13012;SDS011;22580;57.670;12.006;2022-09-24T14:10:25;0.60;;;0.60;;
13012;SDS011;22580;57.670;12.006;2022-09-24T14:12:59;0.77;;;0.77;;
13012;SDS011;22580;57.670;12.006;2022-09-24T14:15:36;0.88;;;0.88;;
13012;SDS011;22580;57.670;12.006;2022-09-24T14:18:05;0.77;;;0.77;;
13012;SDS011;22580;57.670;12.006;2022-09-24T14:20:32;1.20;;;0.70;;
13012;SDS011;22580;57.670;12.006;2022-09-24T14:23:01;1.13;;;1.08;;
13012;SDS011;22580;57.670;12.006;2022-09-24T14:25:33;0.77;;;0.77;;
13012;SDS011;22580;57.670;12.006;2022-09-24T14:28:03;0.73;;;0.73;;
13012;SDS011;22580;57.670;12.006;2022-09-24T14:30:31;0.90;;;0.90;;
13012;SDS011;22580;57.670;12.006;2022-09-24T14:33:02;0.73;;;0.73;;
13012;SDS011;22580;57.670;12.006;2022-09-24T14:35:33;0.95;;;0.75;;
13012;SDS011;22580;57.670;12.006;2022-09-24T14:38:03;1.00;;;0.80;;
13012;SDS011;22580;57.670;12.006;2022-09-24T14:40:43;0.80;;;0.80;;
13012;SDS011;22580;57.670;12.006;2022-09-24T14:43:15;0.90;;;0.90;;
13012;SDS011;22580;57.670;12.006;2022-09-24T14:45:46;0.73;;;0.73;;
13012;SDS011;22580;57.670;12.006;2022-09-24T14:48:16;0.98;;;0.98;;
13012;SDS011;22580;57.670;12.006;2022-09-24T14:50:51;1.15;;;1.10;;
13012;SDS011;22580;57.670;12.006;2022-09-24T14:53:20;1.20;;;1.15;;
13012;SDS011;22580;57.670;12.006;2022-09-24T14:55:50;0.90;;;0.90;;
13012;SDS011;22580;57.670;12.006;2022-09-24T14:58:25;0.70;;;0.70;;
13012;SDS011;22580;57.670;12.006;2022-09-24T15:01:00;0.60;;;0.60;;
13012;SDS011;22580;57.670;12.006;2022-09-24T15:03:31;0.60;;;0.60;;
13012;SDS011;22580;57.670;12.006;2022-09-24T15:06:05;0.93;;;0.93;;
13012;SDS011;22580;57.670;12.006;2022-09-24T15:08:42;1.00;;;1.00;;
13012;SDS011;22580;57.670;12.006;2022-09-24T15:11:15;0.98;;;0.98;;